Aeroporto :
LOGIN :

Iscrizione | Disclaimer

   EN    FR    IT 

 










Sommario :    VFR   VFR Marginale   IFR   IFR Intensivo   IFR Molto Intensivo
Visibilità : 
Base nubi : 
>= 8 km
>= 3000ft
5 / 8 km
1000 / 3000 ft
1500m / 5 km
500 / 1000 ft
800 / 1500m
200 / 500 ft
< 800m
< 200 ft
Simboli :   Temporali  Nebbia  Neve Forte  Precipitazioni Forti  Vento > 20 kt
SIGMETs :   Varie  Temporali  Ghiacco  Turbolenza  Onda orograficha  Ceneri Vulcaniche







- Altitudine del aeroporto : 247 ft
- Codice IATA : BLL


EKBI - Billund

ULTIMO METAR :
  • 152050Z AUTO 12002KT 9999 OVC005/// 14/14 Q1011

METARs OBSOLETI :
  • 152020Z AUTO 13001KT 9999 OVC005/// 14/14 Q1011
  • 151950Z AUTO 10001KT 4700 BR OVC004/// 14/14 Q1011
  • 151920Z AUTO 12004KT 090V150 7000 OVC007/// 14/14 Q1011
  • 151850Z AUTO 11006KT 080V140 9999 BKN007/// OVC043/// 14/14 Q1011
  • 151820Z AUTO 10009KT 9999 OVC026/// 15/14 Q1011
  • 151750Z AUTO 10007KT 9999 OVC025/// 16/13 Q1011

TAF AMD TAF EKBI
Valido dal 15 a 18 ore il 16 a 18 ore UTC


151850Z 1518/1618 12012KT 9999 BKN020
TEMPO 1518/1607 2000 BR BKN004
BECMG 1523/1601 24008KT
Nessun NOTAM noto per questo aeroporto.



MetMap, La meteo Aeronautica in un colpo d'occhio ! - Copyright ORBIFLY Dicembre 2007 - Disclaimer

ORBIFLY MET'MAP TEAM :

Programmazione e sviluppo : Alexandra Zaïnal
Concezione e sviluppo : Baudouin d'Aumeries
Co-Programmazione e sviluppo : Marc-Olivier Méhu
Supporto tecnico e logistico : Manuel Goepfert
Aiuto per la traduzione : Arnaldo La Scala

Contatto : metmap@orbifly.com




FONTI E CREDITI :

   NOAA